createdAt,value
2023-05-13T00:01:40.576Z,10.03
2023-05-13T00:04:10.571Z,10.05
2023-05-13T00:06:43.607Z,10.01
2023-05-13T00:09:13.583Z,9.98
2023-05-13T00:11:46.580Z,10.02
2023-05-13T00:14:16.235Z,9.85
2023-05-13T00:16:47.665Z,9.99
2023-05-13T00:19:17.242Z,10.01
2023-05-13T00:21:49.364Z,9.83
2023-05-13T00:24:19.575Z,9.87
2023-05-13T00:26:50.583Z,9.81
2023-05-13T00:29:20.152Z,9.97
2023-05-13T00:31:49.799Z,9.89
2023-05-13T00:34:19.748Z,9.91
2023-05-13T00:36:55.573Z,9.88
2023-05-13T00:39:25.103Z,9.82
2023-05-13T00:41:55.531Z,9.83
2023-05-13T00:44:25.577Z,9.77
2023-05-13T00:46:55.154Z,9.74
2023-05-13T00:49:26.584Z,9.57
2023-05-13T00:51:59.681Z,9.60
2023-05-13T00:54:32.551Z,9.55
2023-05-13T00:57:02.110Z,9.47
2023-05-13T00:59:33.585Z,9.31
2023-05-13T01:02:14.595Z,9.11
2023-05-13T01:04:47.722Z,8.98
2023-05-13T01:07:36.555Z,8.91
2023-05-13T01:10:11.521Z,8.77
2023-05-13T01:12:46.462Z,8.82
2023-05-13T01:15:18.587Z,8.79
2023-05-13T01:17:56.537Z,8.75
2023-05-13T01:20:26.871Z,8.70
2023-05-13T01:22:59.557Z,9.01
2023-05-13T01:25:29.125Z,8.97
2023-05-13T01:27:58.831Z,8.67
2023-05-13T01:30:28.773Z,9.08
2023-05-13T01:32:58.614Z,9.04
2023-05-13T01:35:31.353Z,9.33
2023-05-13T01:38:05.409Z,9.11
2023-05-13T01:40:35.879Z,9.14
2023-05-13T01:43:05.581Z,9.19
2023-05-13T01:45:35.517Z,9.12
2023-05-13T01:48:05.157Z,9.06
2023-05-13T01:50:34.968Z,9.03
2023-05-13T01:53:07.198Z,8.81
2023-05-13T01:55:37.562Z,8.51
2023-05-13T01:58:07.105Z,8.46
2023-05-13T02:00:36.608Z,8.34
2023-05-13T02:03:06.593Z,8.23
2023-05-13T02:05:36.544Z,8.24
2023-05-13T02:08:09.753Z,8.60
2023-05-13T02:10:39.555Z,8.54
2023-05-13T02:13:09.098Z,8.51
2023-05-13T02:15:40.076Z,8.37
2023-05-13T02:18:09.631Z,8.04
2023-05-13T02:20:39.154Z,8.34
2023-05-13T02:23:11.393Z,8.30
2023-05-13T02:25:41.570Z,8.31
2023-05-13T02:28:11.114Z,8.28
2023-05-13T02:30:42.536Z,8.18
2023-05-13T02:33:12.171Z,8.12
2023-05-13T02:35:41.699Z,7.94
2023-05-13T02:38:14.851Z,7.83
2023-05-13T02:43:19.546Z,8.01
2023-05-13T02:45:49.367Z,7.98
2023-05-13T02:48:19.532Z,7.93
2023-05-13T02:50:49.029Z,7.79
2023-05-13T02:53:21.539Z,7.63
2023-05-13T02:55:51.054Z,7.71
2023-05-13T02:58:24.580Z,7.67
2023-05-13T03:00:54.137Z,7.76
2023-05-13T03:03:24.752Z,7.77
2023-05-13T03:05:54.506Z,7.78
2023-05-13T03:08:26.711Z,7.74
2023-05-13T03:10:56.361Z,7.57
2023-05-13T03:13:25.959Z,7.64
2023-05-13T03:15:57.578Z,7.49
2023-05-13T03:18:28.962Z,7.63
2023-05-13T03:20:59.574Z,7.61
2023-05-13T03:23:31.726Z,7.55
2023-05-13T03:28:38.559Z,7.82
2023-05-13T03:31:08.573Z,7.94
2023-05-13T03:33:38.205Z,8.15
2023-05-13T03:36:08.443Z,8.45
2023-05-13T03:38:40.858Z,8.70
2023-05-13T03:41:10.426Z,8.83
2023-05-13T03:43:40.009Z,9.10
2023-05-13T03:46:09.545Z,9.73
2023-05-13T03:48:39.068Z,9.99
2023-05-13T03:51:08.822Z,10.10
2023-05-13T03:53:41.010Z,10.75
2023-05-13T03:56:10.642Z,10.71
2023-05-13T03:58:40.290Z,11.20
2023-05-13T04:01:10.000Z,10.94
2023-05-13T04:03:39.539Z,11.56
2023-05-13T04:06:09.481Z,11.38
2023-05-13T04:08:42.024Z,10.82
2023-05-13T04:11:11.587Z,12.57
2023-05-13T04:13:41.230Z,12.86
2023-05-13T04:16:10.924Z,13.70
2023-05-13T04:18:40.509Z,14.54
2023-05-13T04:21:11.637Z,14.73
2023-05-13T04:23:44.532Z,14.86
2023-05-13T04:26:14.088Z,14.49
2023-05-13T04:28:43.600Z,15.05
2023-05-13T04:31:13.164Z,15.45
2023-05-13T04:33:42.758Z,15.41
2023-05-13T04:36:14.868Z,17.00
2023-05-13T04:38:47.283Z,17.58
2023-05-13T04:41:16.808Z,17.33
2023-05-13T04:43:46.350Z,16.01
2023-05-13T04:46:15.942Z,16.89
2023-05-13T04:48:48.360Z,17.33
2023-05-13T04:51:18.666Z,16.95
2023-05-13T04:53:51.182Z,18.26
2023-05-13T04:56:21.954Z,17.93
2023-05-13T04:58:51.847Z,16.13
2023-05-13T05:01:21.405Z,16.53
2023-05-13T05:03:51.015Z,16.91
2023-05-13T05:06:21.996Z,16.48
2023-05-13T05:08:54.088Z,17.60
2023-05-13T05:11:23.642Z,16.49
2023-05-13T05:13:53.179Z,16.40
2023-05-13T05:16:22.683Z,16.67
2023-05-13T05:18:52.303Z,15.59
2023-05-13T05:21:21.930Z,16.04
2023-05-13T05:23:54.062Z,16.90
2023-05-13T05:26:23.679Z,16.97
2023-05-13T05:28:53.219Z,16.96
2023-05-13T05:31:22.812Z,17.44
2023-05-13T05:33:52.581Z,16.83
2023-05-13T05:36:22.247Z,18.00
2023-05-13T05:38:54.363Z,19.34
2023-05-13T05:41:25.493Z,17.97
2023-05-13T05:43:55.016Z,16.97
2023-05-13T05:46:25.049Z,16.31
2023-05-13T05:48:54.794Z,15.98
2023-05-13T05:51:24.344Z,16.30
2023-05-13T05:53:56.465Z,15.24
2023-05-13T05:56:25.952Z,16.62
2023-05-13T05:58:56.527Z,16.99
2023-05-13T06:01:26.071Z,16.61
2023-05-13T06:03:55.634Z,15.85
2023-05-13T06:06:25.245Z,17.09
2023-05-13T06:08:57.449Z,17.44
2023-05-13T06:11:27.011Z,16.52
2023-05-13T06:13:57.691Z,15.53
2023-05-13T06:16:27.551Z,16.75
2023-05-13T06:18:57.276Z,16.44
2023-05-13T06:21:26.908Z,15.83
2023-05-13T06:23:59.523Z,17.71
2023-05-13T06:26:29.888Z,19.58
2023-05-13T06:28:59.450Z,18.44
2023-05-13T06:31:29.245Z,20.16
2023-05-13T06:33:58.811Z,16.62
2023-05-13T06:36:29.286Z,19.23
2023-05-13T06:39:01.512Z,20.09
2023-05-13T06:41:31.334Z,18.48
2023-05-13T06:44:00.926Z,17.65
2023-05-13T06:46:30.526Z,18.17
2023-05-13T06:49:00.354Z,18.19
2023-05-13T06:51:30.830Z,19.24
2023-05-13T06:54:03.071Z,19.12
2023-05-13T06:56:33.118Z,18.71
2023-05-13T06:59:02.673Z,19.18
2023-05-13T07:01:32.386Z,19.49
2023-05-13T07:04:02.153Z,18.56
2023-05-13T07:06:32.506Z,19.25
2023-05-13T07:09:08.325Z,18.85
2023-05-13T07:11:38.437Z,18.34
2023-05-13T07:14:07.967Z,18.64
2023-05-13T07:16:37.464Z,16.69
2023-05-13T07:19:06.987Z,19.20
2023-05-13T07:21:36.713Z,19.82
2023-05-13T07:24:09.639Z,19.35
2023-05-13T07:26:39.900Z,18.85
2023-05-13T07:29:09.439Z,18.91
2023-05-13T07:34:08.384Z,20.66
2023-05-13T07:36:37.906Z,17.94
2023-05-13T07:39:10.515Z,19.26
2023-05-13T07:41:40.094Z,21.61
2023-05-13T07:44:13.241Z,21.36
2023-05-13T07:46:42.815Z,20.81
2023-05-13T07:49:12.438Z,19.73
2023-05-13T07:51:42.137Z,17.33
2023-05-13T07:54:14.703Z,18.14
2023-05-13T07:56:44.479Z,20.71
2023-05-13T07:59:14.180Z,19.97
2023-05-13T08:01:45.503Z,19.50
2023-05-13T08:04:15.460Z,19.52
2023-05-13T08:06:45.329Z,20.77
2023-05-13T08:09:18.243Z,22.56
2023-05-13T08:11:48.274Z,21.57
2023-05-13T08:14:17.842Z,21.86
2023-05-13T08:16:47.455Z,21.02
2023-05-13T08:19:18.199Z,20.77
2023-05-13T08:21:47.806Z,20.29
2023-05-13T08:24:20.488Z,21.32
2023-05-13T08:26:50.520Z,21.77
2023-05-13T08:29:20.054Z,21.07
2023-05-13T08:31:50.224Z,23.40
2023-05-13T08:34:19.802Z,24.05
2023-05-13T08:36:49.344Z,23.32
2023-05-13T08:39:22.012Z,24.29
2023-05-13T08:41:54.681Z,22.78
2023-05-13T08:44:29.241Z,23.98
2023-05-13T08:47:07.383Z,23.49
2023-05-13T08:49:37.767Z,21.60
2023-05-13T08:52:09.053Z,22.16
2023-05-13T08:54:41.689Z,21.28
2023-05-13T08:57:11.256Z,20.99
2023-05-13T08:59:40.808Z,20.82
2023-05-13T09:02:12.472Z,21.77
2023-05-13T09:04:44.107Z,21.87
2023-05-13T09:07:14.505Z,21.91
2023-05-13T09:09:47.549Z,23.01
2023-05-13T09:12:50.127Z,22.89
2023-05-13T09:15:21.245Z,21.24
2023-05-13T09:17:52.741Z,21.89
2023-05-13T09:20:25.538Z,21.51
2023-05-13T09:22:56.929Z,21.76
2023-05-13T09:25:29.685Z,21.65
2023-05-13T09:28:01.791Z,20.26
2023-05-13T09:30:32.938Z,23.17
2023-05-13T09:33:13.862Z,23.81
2023-05-13T09:35:45.053Z,25.62
2023-05-13T09:38:18.685Z,23.94
2023-05-13T09:40:58.681Z,23.57
2023-05-13T09:43:29.706Z,23.25
2023-05-13T09:46:00.453Z,18.14
2023-05-13T09:48:32.366Z,21.73
2023-05-13T09:51:02.325Z,21.73
2023-05-13T09:53:32.090Z,22.68
2023-05-13T09:56:04.407Z,22.19
2023-05-13T09:58:34.831Z,22.14
2023-05-13T10:01:05.639Z,21.09
2023-05-13T10:03:35.488Z,21.75
2023-05-13T10:06:07.332Z,21.25
2023-05-13T10:08:38.084Z,20.09
2023-05-13T10:11:11.581Z,20.58
2023-05-13T10:13:42.913Z,21.21
2023-05-13T10:16:12.800Z,20.78
2023-05-13T10:18:42.857Z,20.52
2023-05-13T10:21:12.409Z,20.16
2023-05-13T10:23:42.435Z,19.93
2023-05-13T10:26:15.470Z,20.11
2023-05-13T10:28:46.383Z,19.53
2023-05-13T10:31:15.954Z,19.41
2023-05-13T10:33:46.006Z,19.32
2023-05-13T10:36:37.454Z,20.10
2023-05-13T10:39:27.840Z,20.04
2023-05-13T10:42:33.763Z,20.23
2023-05-13T10:45:04.386Z,19.98
2023-05-13T10:47:35.011Z,20.83
2023-05-13T10:50:08.989Z,20.95
2023-05-13T10:52:45.952Z,21.25
2023-05-13T10:55:20.515Z,21.07
2023-05-13T10:58:15.159Z,21.84
2023-05-13T11:00:46.238Z,21.72
2023-05-13T11:03:18.288Z,20.37
2023-05-13T11:05:49.951Z,20.05
2023-05-13T11:08:40.835Z,19.65
2023-05-13T11:11:21.316Z,19.50
2023-05-13T11:13:56.008Z,19.34
2023-05-13T11:16:25.953Z,19.09
2023-05-13T11:18:55.997Z,19.25
2023-05-13T11:21:35.481Z,19.02
2023-05-13T11:24:07.179Z,19.12
2023-05-13T11:26:49.872Z,19.42
2023-05-13T11:29:31.122Z,19.58
2023-05-13T11:32:01.721Z,19.67
2023-05-13T11:34:31.594Z,19.93
2023-05-13T11:37:10.622Z,20.12
2023-05-13T11:39:43.017Z,20.19
2023-05-13T11:42:13.681Z,20.37
2023-05-13T11:44:52.144Z,20.62
2023-05-13T11:47:28.947Z,20.49
2023-05-13T11:49:59.333Z,20.46
2023-05-13T11:52:29.581Z,19.96
2023-05-13T11:55:00.468Z,19.97
2023-05-13T11:57:32.937Z,19.69
2023-05-13T12:00:07.762Z,19.42
2023-05-13T12:02:40.695Z,19.16
2023-05-13T12:05:12.486Z,19.16
2023-05-13T12:07:42.436Z,19.35
2023-05-13T12:10:12.463Z,19.09
2023-05-13T12:12:43.540Z,19.35
2023-05-13T12:15:18.545Z,19.39
2023-05-13T12:17:49.523Z,19.44
2023-05-13T12:20:20.330Z,19.12
2023-05-13T12:22:57.021Z,18.71
2023-05-13T12:25:40.347Z,18.92
2023-05-13T12:28:12.032Z,18.67
2023-05-13T12:30:49.488Z,18.47
2023-05-13T12:33:21.110Z,18.72
2023-05-13T12:35:52.340Z,18.63
2023-05-13T12:38:24.122Z,18.77
2023-05-13T12:40:55.361Z,18.67
2023-05-13T12:43:25.775Z,18.60
2023-05-13T12:45:58.480Z,18.61
2023-05-13T12:48:28.711Z,18.77
2023-05-13T12:51:01.286Z,19.16
2023-05-13T12:53:31.747Z,18.85
2023-05-13T12:56:01.473Z,19.82
2023-05-13T12:58:31.218Z,20.47
2023-05-13T13:01:03.419Z,20.40
2023-05-13T13:03:33.095Z,19.49
2023-05-13T13:06:02.727Z,19.39
2023-05-13T13:08:32.473Z,19.13
2023-05-13T13:11:02.139Z,19.40
2023-05-13T13:13:31.729Z,19.11
2023-05-13T13:16:04.198Z,18.86
2023-05-13T13:18:33.785Z,18.65
2023-05-13T13:21:03.329Z,19.34
2023-05-13T13:23:32.837Z,19.13
2023-05-13T13:26:02.478Z,18.79
2023-05-13T13:28:32.112Z,17.77
2023-05-13T13:31:04.270Z,18.33
2023-05-13T13:33:33.798Z,18.85
2023-05-13T13:36:03.369Z,19.04
2023-05-13T13:38:32.887Z,18.81
2023-05-13T13:41:02.449Z,18.26
2023-05-13T13:43:31.947Z,17.99
2023-05-13T13:46:04.134Z,17.83
2023-05-13T13:48:33.673Z,17.97
2023-05-13T13:51:03.178Z,18.35
2023-05-13T13:53:32.692Z,18.12
2023-05-13T17:16:16.394Z,17.41
2023-05-13T17:18:45.972Z,17.15
2023-05-13T17:21:15.589Z,17.03
2023-05-13T17:23:45.262Z,16.81
2023-05-13T17:26:15.464Z,16.72
2023-05-13T17:28:45.004Z,16.73
2023-05-13T17:31:17.123Z,16.77
2023-05-13T17:33:46.795Z,16.77
2023-05-13T17:36:16.510Z,16.93
2023-05-13T17:38:46.095Z,16.79
2023-05-13T17:41:15.656Z,16.75
2023-05-13T17:43:45.283Z,16.45
2023-05-13T17:46:17.396Z,16.43
2023-05-13T17:48:47.028Z,16.32
2023-05-13T17:51:16.596Z,16.15
2023-05-13T17:53:46.095Z,16.01
2023-05-13T17:56:15.631Z,15.91
2023-05-13T17:58:45.219Z,15.83
2023-05-13T18:01:17.376Z,15.86
2023-05-13T18:03:46.903Z,15.90
2023-05-13T18:06:16.595Z,15.76
2023-05-13T18:08:46.357Z,15.69
2023-05-13T18:11:15.915Z,15.60
2023-05-13T18:13:45.511Z,15.46
2023-05-13T18:18:56.688Z,15.32
2023-05-13T18:24:10.471Z,15.02
2023-05-13T18:26:40.063Z,14.90
2023-05-13T18:29:09.697Z,14.78
2023-05-13T18:31:41.910Z,14.63
2023-05-13T18:34:11.575Z,14.52
2023-05-13T18:36:41.161Z,14.45
2023-05-13T18:39:11.316Z,14.32
2023-05-13T18:41:40.885Z,14.16
2023-05-13T18:44:10.430Z,14.03
2023-05-13T18:46:44.581Z,14.00
2023-05-13T18:49:14.176Z,13.84
2023-05-13T18:51:45.516Z,13.56
2023-05-13T18:54:15.132Z,13.53
2023-05-13T18:56:44.781Z,13.43
2023-05-13T18:59:16.449Z,13.17
2023-05-13T19:01:48.825Z,13.01
2023-05-13T19:04:18.481Z,13.03
2023-05-13T19:06:49.456Z,12.97
2023-05-13T19:09:19.098Z,13.00
2023-05-13T19:11:48.641Z,12.81
2023-05-13T19:14:18.492Z,12.67
2023-05-13T19:16:50.922Z,12.39
2023-05-13T19:19:20.525Z,12.52
2023-05-13T19:21:50.065Z,12.39
2023-05-13T19:24:19.617Z,12.35
2023-05-13T19:26:49.153Z,12.06
2023-05-13T19:29:18.783Z,12.19
2023-05-13T19:31:50.884Z,12.08
2023-05-13T19:34:20.492Z,11.91
2023-05-13T19:36:50.052Z,11.93
2023-05-13T19:39:19.616Z,11.76
2023-05-13T19:41:49.949Z,11.69
2023-05-13T19:44:19.625Z,11.56
2023-05-13T19:46:51.877Z,11.29
2023-05-13T19:49:21.477Z,11.21
2023-05-13T19:51:51.040Z,11.04
2023-05-13T19:54:20.744Z,11.00
2023-05-13T19:56:50.278Z,10.89
2023-05-13T19:59:20.465Z,11.03
2023-05-13T20:01:52.645Z,11.08
2023-05-13T20:04:22.784Z,10.98
2023-05-13T20:06:52.366Z,11.05
2023-05-13T20:09:21.903Z,11.00
2023-05-13T20:11:54.239Z,11.08
2023-05-13T20:14:27.804Z,11.08
2023-05-13T20:17:00.071Z,11.13
2023-05-13T20:19:29.621Z,11.20
2023-05-13T20:21:59.124Z,11.09
2023-05-13T20:24:28.747Z,10.90
2023-05-13T20:26:58.581Z,10.96
2023-05-13T20:29:28.204Z,10.83
2023-05-13T20:32:04.570Z,10.75
2023-05-13T20:34:34.444Z,10.75
2023-05-13T20:37:04.245Z,10.64
2023-05-13T20:39:33.867Z,10.60
2023-05-13T20:42:03.444Z,10.70
2023-05-13T20:44:33.047Z,10.60
2023-05-13T20:47:05.285Z,10.57
2023-05-13T20:49:34.841Z,10.57
2023-05-13T20:52:08.481Z,10.54
2023-05-13T20:54:38.937Z,10.59
2023-05-13T20:57:08.786Z,10.54
2023-05-13T20:59:38.285Z,10.61
2023-05-13T21:02:10.617Z,10.52
2023-05-13T21:04:40.143Z,10.46
2023-05-13T21:07:09.701Z,10.34
2023-05-13T21:09:39.248Z,10.32
2023-05-13T21:12:09.470Z,10.24
2023-05-13T21:14:39.001Z,10.24
2023-05-13T21:17:11.138Z,10.12
2023-05-13T21:19:40.715Z,10.15
2023-05-13T21:22:10.260Z,10.17
2023-05-13T21:24:39.852Z,10.06
2023-05-13T21:27:09.390Z,10.10
2023-05-13T21:29:38.928Z,10.06
2023-05-13T21:32:12.120Z,10.05
2023-05-13T21:34:41.630Z,10.08
2023-05-13T21:37:11.166Z,10.02
2023-05-13T21:39:41.391Z,10.11
2023-05-13T21:42:10.996Z,10.07
2023-05-13T21:44:41.121Z,10.08
2023-05-13T21:47:13.372Z,10.04
2023-05-13T21:49:42.998Z,9.92
2023-05-13T21:52:12.587Z,9.86
2023-05-13T21:54:42.522Z,9.83
2023-05-13T21:57:12.068Z,9.78
2023-05-13T21:59:41.742Z,9.75
2023-05-13T22:02:13.924Z,9.70
2023-05-13T22:04:43.488Z,9.68
2023-05-13T22:07:13.045Z,9.70
2023-05-13T22:09:42.577Z,9.63
2023-05-13T22:12:12.241Z,9.58
2023-05-13T22:14:41.754Z,9.58
2023-05-13T22:17:13.969Z,9.59
2023-05-13T22:19:43.712Z,9.45
2023-05-13T22:22:13.313Z,9.32
2023-05-13T22:24:42.862Z,9.33
2023-05-13T22:27:12.477Z,9.17
2023-05-13T22:29:42.011Z,9.21
2023-05-13T22:32:14.227Z,9.24
2023-05-13T22:34:43.806Z,9.22
2023-05-13T22:37:13.336Z,9.16
2023-05-13T22:39:42.837Z,9.11
2023-05-13T22:42:12.389Z,9.04
2023-05-13T22:44:41.972Z,8.85
2023-05-13T22:47:14.096Z,8.82
2023-05-13T22:49:43.662Z,8.76
2023-05-13T22:52:13.176Z,8.77
2023-05-13T22:54:42.778Z,8.72
2023-05-13T22:57:12.316Z,8.71
2023-05-13T22:59:41.924Z,8.67
2023-05-13T23:02:14.393Z,8.57
2023-05-13T23:04:43.999Z,8.59
2023-05-13T23:07:13.562Z,8.58
2023-05-13T23:09:43.112Z,8.57
2023-05-13T23:12:12.805Z,8.51
2023-05-13T23:14:42.692Z,8.48
2023-05-13T23:17:14.774Z,8.47
2023-05-13T23:19:44.298Z,8.43
2023-05-13T23:22:13.890Z,8.44
2023-05-13T23:24:43.449Z,8.47
2023-05-13T23:27:12.948Z,8.47
2023-05-13T23:29:42.439Z,8.49
2023-05-13T23:32:14.610Z,8.36
2023-05-13T23:34:44.145Z,8.38
2023-05-13T23:37:15.753Z,8.39
2023-05-13T23:39:45.441Z,8.34
2023-05-13T23:42:14.926Z,8.25
2023-05-13T23:44:44.482Z,8.19
2023-05-13T23:47:16.887Z,8.15
2023-05-13T23:49:46.520Z,8.12
2023-05-13T23:52:16.100Z,8.02
2023-05-13T23:54:45.631Z,8.07
2023-05-13T23:57:15.181Z,7.98
2023-05-13T23:59:44.774Z,8.01
